Terminal Aerodrome Forecast
Issued by NWS Wilmington, OH

Current Version | Previous Version | Graphics & Text | Print | Product List | Glossary On
Versions: 1 2 3 4 5 6 7 8 9 10 11 12 13 14 15 16 17 18 19 20
000
FTUS41 KILN 232349
TAFDAY
TAF
KDAY 232349Z 2400/2424 11005KT P6SM BKN120
     FM241100 14005KT P6SM OVC020
     FM241500 13006KT 6SM -SHRA OVC035
     FM241800 12007KT 4SM SHRA SCT020 OVC035
     FM242300 09006KT 6SM -SHRA OVC020=

USA.gov is the U.S. government's official web portal to all federal, state and local government web resources and services.